sensor_id;sensor_type;location;lat;lon;timestamp;pressure;altitude;pressure_sealevel;temperature;humidity
15914;BME280;8055;51.930;8.840;2023-03-08T00:00:08;76137.16;;;-145.72;100.00
15914;BME280;8055;51.930;8.840;2023-03-08T00:02:35;76139.22;;;-145.72;100.00
15914;BME280;8055;51.930;8.840;2023-03-08T00:05:00;76145.44;;;-145.72;100.00
15914;BME280;8055;51.930;8.840;2023-03-08T00:07:26;76143.38;;;-145.72;100.00
15914;BME280;8055;51.930;8.840;2023-03-08T00:09:51;76135.09;;;-145.72;100.00
15914;BME280;8055;51.930;8.840;2023-03-08T00:12:17;76149.56;;;-145.72;100.00
15914;BME280;8055;51.930;8.840;2023-03-08T00:14:43;76145.44;;;-145.72;100.00
15914;BME280;8055;51.930;8.840;2023-03-08T00:17:09;76149.56;;;-145.72;100.00
15914;BME280;8055;51.930;8.840;2023-03-08T00:19:34;76147.50;;;-145.72;100.00
15914;BME280;8055;51.930;8.840;2023-03-08T00:22:00;76147.50;;;-145.72;100.00
15914;BME280;8055;51.930;8.840;2023-03-08T00:24:25;76157.84;;;-145.72;100.00
15914;BME280;8055;51.930;8.840;2023-03-08T00:26:50;76157.84;;;-145.72;100.00
15914;BME280;8055;51.930;8.840;2023-03-08T00:29:16;76159.94;;;-145.72;100.00
15914;BME280;8055;51.930;8.840;2023-03-08T00:31:41;76162.00;;;-145.72;100.00
15914;BME280;8055;51.930;8.840;2023-03-08T00:34:06;76162.00;;;-145.72;100.00
15914;BME280;8055;51.930;8.840;2023-03-08T00:36:32;76162.00;;;-145.72;100.00
15914;BME280;8055;51.930;8.840;2023-03-08T00:38:57;76166.13;;;-145.72;100.00
15914;BME280;8055;51.930;8.840;2023-03-08T00:41:23;76164.06;;;-145.72;100.00
15914;BME280;8055;51.930;8.840;2023-03-08T00:43:48;76172.34;;;-145.72;100.00
15914;BME280;8055;51.930;8.840;2023-03-08T00:46:14;76166.13;;;-145.72;100.00
15914;BME280;8055;51.930;8.840;2023-03-08T00:48:40;76164.06;;;-145.72;100.00
15914;BME280;8055;51.930;8.840;2023-03-08T00:51:06;76168.19;;;-145.72;100.00
15914;BME280;8055;51.930;8.840;2023-03-08T00:53:32;76164.06;;;-145.72;100.00
15914;BME280;8055;51.930;8.840;2023-03-08T00:55:58;76170.28;;;-145.72;100.00
15914;BME280;8055;51.930;8.840;2023-03-08T00:58:27;76178.56;;;-145.72;100.00
15914;BME280;8055;51.930;8.840;2023-03-08T01:00:53;76172.34;;;-145.72;100.00
15914;BME280;8055;51.930;8.840;2023-03-08T01:03:19;76166.13;;;-145.72;100.00
15914;BME280;8055;51.930;8.840;2023-03-08T01:05:48;76172.34;;;-145.72;100.00
15914;BME280;8055;51.930;8.840;2023-03-08T01:08:15;76172.34;;;-145.72;100.00
15914;BME280;8055;51.930;8.840;2023-03-08T01:10:46;76170.28;;;-145.72;100.00
15914;BME280;8055;51.930;8.840;2023-03-08T01:13:12;76170.28;;;-145.72;100.00
15914;BME280;8055;51.930;8.840;2023-03-08T01:15:37;76164.06;;;-145.72;100.00
15914;BME280;8055;51.930;8.840;2023-03-08T01:18:04;76157.84;;;-145.72;100.00
15914;BME280;8055;51.930;8.840;2023-03-08T01:20:29;76166.13;;;-145.72;100.00
15914;BME280;8055;51.930;8.840;2023-03-08T01:22:54;76157.84;;;-145.72;100.00
15914;BME280;8055;51.930;8.840;2023-03-08T01:25:20;76155.78;;;-145.72;100.00
15914;BME280;8055;51.930;8.840;2023-03-08T01:27:45;76168.19;;;-145.72;100.00
15914;BME280;8055;51.930;8.840;2023-03-08T01:30:11;76164.06;;;-145.72;100.00
15914;BME280;8055;51.930;8.840;2023-03-08T01:32:37;76172.34;;;-145.72;100.00
15914;BME280;8055;51.930;8.840;2023-03-08T01:35:02;76176.47;;;-145.72;100.00
15914;BME280;8055;51.930;8.840;2023-03-08T01:37:30;76170.28;;;-145.72;100.00
15914;BME280;8055;51.930;8.840;2023-03-08T01:39:56;76172.34;;;-145.72;100.00
15914;BME280;8055;51.930;8.840;2023-03-08T01:42:21;76174.41;;;-145.72;100.00
15914;BME280;8055;51.930;8.840;2023-03-08T01:44:58;76172.34;;;-145.72;100.00
15914;BME280;8055;51.930;8.840;2023-03-08T01:47:28;76168.19;;;-145.72;100.00
15914;BME280;8055;51.930;8.840;2023-03-08T01:49:58;76168.19;;;-145.72;100.00
15914;BME280;8055;51.930;8.840;2023-03-08T01:52:38;76172.34;;;-145.72;100.00
15914;BME280;8055;51.930;8.840;2023-03-08T01:55:09;76168.19;;;-145.72;100.00
15914;BME280;8055;51.930;8.840;2023-03-08T01:57:47;76168.19;;;-145.72;100.00
15914;BME280;8055;51.930;8.840;2023-03-08T02:00:18;76170.28;;;-145.72;100.00
15914;BME280;8055;51.930;8.840;2023-03-08T02:02:52;76176.47;;;-145.72;100.00
15914;BME280;8055;51.930;8.840;2023-03-08T02:05:19;76168.19;;;-145.72;100.00
15914;BME280;8055;51.930;8.840;2023-03-08T02:07:44;76172.34;;;-145.72;100.00
15914;BME280;8055;51.930;8.840;2023-03-08T02:10:11;76168.19;;;-145.72;100.00
15914;BME280;8055;51.930;8.840;2023-03-08T02:12:37;76157.84;;;-145.72;100.00
15914;BME280;8055;51.930;8.840;2023-03-08T02:15:04;76162.00;;;-145.72;100.00
15914;BME280;8055;51.930;8.840;2023-03-08T02:17:31;76159.94;;;-145.72;100.00
15914;BME280;8055;51.930;8.840;2023-03-08T02:20:15;76162.00;;;-145.72;100.00
15914;BME280;8055;51.930;8.840;2023-03-08T02:22:43;76166.13;;;-145.72;100.00
15914;BME280;8055;51.930;8.840;2023-03-08T02:25:14;76168.19;;;-145.72;100.00
15914;BME280;8055;51.930;8.840;2023-03-08T02:27:39;76170.28;;;-145.72;100.00
15914;BME280;8055;51.930;8.840;2023-03-08T02:30:05;76159.94;;;-145.72;100.00
15914;BME280;8055;51.930;8.840;2023-03-08T02:32:31;76159.94;;;-145.72;100.00
15914;BME280;8055;51.930;8.840;2023-03-08T02:34:56;76153.72;;;-145.72;100.00
15914;BME280;8055;51.930;8.840;2023-03-08T02:37:21;76162.00;;;-145.72;100.00
15914;BME280;8055;51.930;8.840;2023-03-08T02:39:47;76159.94;;;-145.72;100.00
15914;BME280;8055;51.930;8.840;2023-03-08T02:42:12;76172.34;;;-145.72;100.00
15914;BME280;8055;51.930;8.840;2023-03-08T02:44:38;76172.34;;;-145.72;100.00
15914;BME280;8055;51.930;8.840;2023-03-08T02:47:03;76172.34;;;-145.72;100.00
15914;BME280;8055;51.930;8.840;2023-03-08T02:49:28;76178.56;;;-145.72;100.00
15914;BME280;8055;51.930;8.840;2023-03-08T02:51:54;76180.63;;;-145.72;100.00
15914;BME280;8055;51.930;8.840;2023-03-08T02:54:19;76180.63;;;-145.72;100.00
15914;BME280;8055;51.930;8.840;2023-03-08T02:56:45;76172.34;;;-145.72;100.00
15914;BME280;8055;51.930;8.840;2023-03-08T02:59:10;76172.34;;;-145.72;100.00
15914;BME280;8055;51.930;8.840;2023-03-08T03:01:36;76174.41;;;-145.72;100.00
15914;BME280;8055;51.930;8.840;2023-03-08T03:04:02;76182.69;;;-145.72;100.00
15914;BME280;8055;51.930;8.840;2023-03-08T03:06:27;76174.41;;;-145.72;100.00
15914;BME280;8055;51.930;8.840;2023-03-08T03:08:53;76176.47;;;-145.72;100.00
15914;BME280;8055;51.930;8.840;2023-03-08T03:11:20;76180.63;;;-145.72;100.00
15914;BME280;8055;51.930;8.840;2023-03-08T03:13:52;76184.75;;;-145.72;100.00
15914;BME280;8055;51.930;8.840;2023-03-08T03:16:17;76186.81;;;-145.72;100.00
15914;BME280;8055;51.930;8.840;2023-03-08T03:18:43;76184.75;;;-145.72;100.00
15914;BME280;8055;51.930;8.840;2023-03-08T03:21:11;76182.69;;;-145.72;100.00
15914;BME280;8055;51.930;8.840;2023-03-08T03:23:37;76186.81;;;-145.72;100.00
15914;BME280;8055;51.930;8.840;2023-03-08T03:26:04;76182.69;;;-145.72;100.00
15914;BME280;8055;51.930;8.840;2023-03-08T03:28:30;76180.63;;;-145.72;100.00
15914;BME280;8055;51.930;8.840;2023-03-08T03:30:56;76180.63;;;-145.72;100.00
15914;BME280;8055;51.930;8.840;2023-03-08T03:33:21;76188.91;;;-145.72;100.00
15914;BME280;8055;51.930;8.840;2023-03-08T03:35:47;76193.03;;;-145.72;100.00
15914;BME280;8055;51.930;8.840;2023-03-08T03:38:12;76195.09;;;-145.72;100.00
15914;BME280;8055;51.930;8.840;2023-03-08T03:40:37;76193.03;;;-145.72;100.00
15914;BME280;8055;51.930;8.840;2023-03-08T03:43:03;76201.31;;;-145.72;100.00
15914;BME280;8055;51.930;8.840;2023-03-08T03:45:28;76209.59;;;-145.72;100.00
15914;BME280;8055;51.930;8.840;2023-03-08T03:47:54;76195.09;;;-145.72;100.00
15914;BME280;8055;51.930;8.840;2023-03-08T03:50:19;76199.25;;;-145.72;100.00
15914;BME280;8055;51.930;8.840;2023-03-08T03:52:44;76195.09;;;-145.72;100.00
15914;BME280;8055;51.930;8.840;2023-03-08T03:55:10;76190.97;;;-145.72;100.00
15914;BME280;8055;51.930;8.840;2023-03-08T03:57:35;76199.25;;;-145.72;100.00
15914;BME280;8055;51.930;8.840;2023-03-08T04:00:01;76193.03;;;-145.72;100.00
15914;BME280;8055;51.930;8.840;2023-03-08T04:02:27;76188.91;;;-145.72;100.00
15914;BME280;8055;51.930;8.840;2023-03-08T04:04:52;76190.97;;;-145.72;100.00
15914;BME280;8055;51.930;8.840;2023-03-08T04:07:18;76193.03;;;-145.72;100.00
15914;BME280;8055;51.930;8.840;2023-03-08T04:09:43;76186.81;;;-145.72;100.00
15914;BME280;8055;51.930;8.840;2023-03-08T04:12:09;76174.41;;;-145.72;100.00
15914;BME280;8055;51.930;8.840;2023-03-08T04:14:34;76174.41;;;-145.72;100.00
15914;BME280;8055;51.930;8.840;2023-03-08T04:16:59;76172.34;;;-145.72;100.00
15914;BME280;8055;51.930;8.840;2023-03-08T04:19:25;76178.56;;;-145.72;100.00
15914;BME280;8055;51.930;8.840;2023-03-08T04:21:50;76172.34;;;-145.72;100.00
15914;BME280;8055;51.930;8.840;2023-03-08T04:24:16;76172.34;;;-145.72;100.00
15914;BME280;8055;51.930;8.840;2023-03-08T04:26:41;76182.69;;;-145.72;100.00
15914;BME280;8055;51.930;8.840;2023-03-08T04:29:06;76180.63;;;-145.72;100.00
15914;BME280;8055;51.930;8.840;2023-03-08T04:31:33;76180.63;;;-145.72;100.00
15914;BME280;8055;51.930;8.840;2023-03-08T04:34:00;76180.63;;;-145.72;100.00
15914;BME280;8055;51.930;8.840;2023-03-08T04:36:26;76180.63;;;-145.72;100.00
15914;BME280;8055;51.930;8.840;2023-03-08T04:38:51;76174.41;;;-145.72;100.00
15914;BME280;8055;51.930;8.840;2023-03-08T04:41:17;76176.47;;;-145.72;100.00
15914;BME280;8055;51.930;8.840;2023-03-08T04:43:46;76172.34;;;-145.72;100.00
15914;BME280;8055;51.930;8.840;2023-03-08T04:46:12;76168.19;;;-145.72;100.00
15914;BME280;8055;51.930;8.840;2023-03-08T04:48:38;76157.84;;;-145.72;100.00
15914;BME280;8055;51.930;8.840;2023-03-08T04:51:04;76162.00;;;-145.72;100.00
15914;BME280;8055;51.930;8.840;2023-03-08T04:53:32;76168.19;;;-145.72;100.00
15914;BME280;8055;51.930;8.840;2023-03-08T04:55:58;76164.06;;;-145.72;100.00
15914;BME280;8055;51.930;8.840;2023-03-08T04:58:25;76157.84;;;-145.72;100.00
15914;BME280;8055;51.930;8.840;2023-03-08T05:00:51;76155.78;;;-145.72;100.00
15914;BME280;8055;51.930;8.840;2023-03-08T05:03:17;76141.31;;;-145.72;100.00
15914;BME280;8055;51.930;8.840;2023-03-08T05:05:50;76130.94;;;-145.72;100.00
15914;BME280;8055;51.930;8.840;2023-03-08T05:08:17;76128.88;;;-145.72;100.00
15914;BME280;8055;51.930;8.840;2023-03-08T05:10:46;76124.75;;;-145.72;100.00
15914;BME280;8055;51.930;8.840;2023-03-08T05:13:12;76130.94;;;-145.72;100.00
15914;BME280;8055;51.930;8.840;2023-03-08T05:15:38;76126.81;;;-145.72;100.00
15914;BME280;8055;51.930;8.840;2023-03-08T05:18:03;76135.09;;;-145.72;100.00
15914;BME280;8055;51.930;8.840;2023-03-08T05:20:28;76126.81;;;-145.72;100.00
15914;BME280;8055;51.930;8.840;2023-03-08T05:22:54;76128.88;;;-145.72;100.00
15914;BME280;8055;51.930;8.840;2023-03-08T05:25:19;76118.53;;;-145.72;100.00
15914;BME280;8055;51.930;8.840;2023-03-08T05:27:44;76126.81;;;-145.72;100.00
15914;BME280;8055;51.930;8.840;2023-03-08T05:30:10;76118.53;;;-145.72;100.00
15914;BME280;8055;51.930;8.840;2023-03-08T05:32:36;76126.81;;;-145.72;100.00
15914;BME280;8055;51.930;8.840;2023-03-08T05:35:01;76118.53;;;-145.72;100.00
15914;BME280;8055;51.930;8.840;2023-03-08T05:37:26;76122.69;;;-145.72;100.00
15914;BME280;8055;51.930;8.840;2023-03-08T05:39:52;76110.25;;;-145.72;100.00
15914;BME280;8055;51.930;8.840;2023-03-08T05:42:17;76110.25;;;-145.72;100.00
15914;BME280;8055;51.930;8.840;2023-03-08T05:44:44;76114.41;;;-145.72;100.00
15914;BME280;8055;51.930;8.840;2023-03-08T05:47:10;76101.97;;;-145.72;100.00
15914;BME280;8055;51.930;8.840;2023-03-08T05:49:35;76085.44;;;-145.72;100.00
15914;BME280;8055;51.930;8.840;2023-03-08T05:52:00;76093.72;;;-145.72;100.00
15914;BME280;8055;51.930;8.840;2023-03-08T05:54:26;76091.63;;;-145.72;100.00
15914;BME280;8055;51.930;8.840;2023-03-08T05:56:51;76085.44;;;-145.72;100.00
15914;BME280;8055;51.930;8.840;2023-03-08T05:59:16;76083.34;;;-145.72;100.00
15914;BME280;8055;51.930;8.840;2023-03-08T06:01:42;76081.28;;;-145.72;100.00
15914;BME280;8055;51.930;8.840;2023-03-08T06:04:08;76081.28;;;-145.72;100.00
15914;BME280;8055;51.930;8.840;2023-03-08T06:06:33;76081.28;;;-145.72;100.00
15914;BME280;8055;51.930;8.840;2023-03-08T06:08:58;76064.72;;;-145.72;100.00
15914;BME280;8055;51.930;8.840;2023-03-08T06:11:24;76066.81;;;-145.72;100.00
15914;BME280;8055;51.930;8.840;2023-03-08T06:13:49;76052.31;;;-145.72;100.00
15914;BME280;8055;51.930;8.840;2023-03-08T06:16:15;76056.47;;;-145.72;100.00
15914;BME280;8055;51.930;8.840;2023-03-08T06:18:41;76054.38;;;-145.72;100.00
15914;BME280;8055;51.930;8.840;2023-03-08T06:21:12;76046.09;;;-145.72;100.00
15914;BME280;8055;51.930;8.840;2023-03-08T06:23:39;76039.91;;;-145.72;100.00
15914;BME280;8055;51.930;8.840;2023-03-08T06:26:05;76041.97;;;-145.72;100.00
15914;BME280;8055;51.930;8.840;2023-03-08T06:28:32;76035.75;;;-145.72;100.00
15914;BME280;8055;51.930;8.840;2023-03-08T06:30:57;76029.56;;;-145.72;100.00
15914;BME280;8055;51.930;8.840;2023-03-08T06:33:25;76019.22;;;-145.72;100.00
15914;BME280;8055;51.930;8.840;2023-03-08T06:35:57;76008.84;;;-145.72;100.00
15914;BME280;8055;51.930;8.840;2023-03-08T06:38:23;76013.00;;;-145.72;100.00
15914;BME280;8055;51.930;8.840;2023-03-08T06:40:49;76010.94;;;-145.72;100.00
15914;BME280;8055;51.930;8.840;2023-03-08T06:43:14;76004.72;;;-145.72;100.00
15914;BME280;8055;51.930;8.840;2023-03-08T06:45:39;76013.00;;;-145.72;100.00
15914;BME280;8055;51.930;8.840;2023-03-08T06:48:05;76004.72;;;-145.72;100.00
15914;BME280;8055;51.930;8.840;2023-03-08T06:50:31;76000.59;;;-145.72;100.00
15914;BME280;8055;51.930;8.840;2023-03-08T06:52:57;75994.38;;;-145.72;100.00
15914;BME280;8055;51.930;8.840;2023-03-08T06:55:22;75984.03;;;-145.72;100.00
15914;BME280;8055;51.930;8.840;2023-03-08T06:57:48;75981.97;;;-145.72;100.00
15914;BME280;8055;51.930;8.840;2023-03-08T07:00:13;75977.81;;;-145.72;100.00
15914;BME280;8055;51.930;8.840;2023-03-08T07:02:39;75969.53;;;-145.72;100.00
15914;BME280;8055;51.930;8.840;2023-03-08T07:05:05;75961.25;;;-145.72;100.00
15914;BME280;8055;51.930;8.840;2023-03-08T07:07:30;75959.19;;;-145.72;100.00
15914;BME280;8055;51.930;8.840;2023-03-08T07:09:56;75957.13;;;-145.72;100.00
15914;BME280;8055;51.930;8.840;2023-03-08T07:12:23;75942.63;;;-145.72;100.00
15914;BME280;8055;51.930;8.840;2023-03-08T07:14:50;75940.56;;;-145.72;100.00
15914;BME280;8055;51.930;8.840;2023-03-08T07:17:16;75924.03;;;-145.72;100.00
15914;BME280;8055;51.930;8.840;2023-03-08T07:19:41;75919.88;;;-145.72;100.00
15914;BME280;8055;51.930;8.840;2023-03-08T07:22:07;75915.75;;;-145.72;100.00
15914;BME280;8055;51.930;8.840;2023-03-08T07:24:32;75907.47;;;-145.72;100.00
15914;BME280;8055;51.930;8.840;2023-03-08T07:26:57;75905.41;;;-145.72;100.00
15914;BME280;8055;51.930;8.840;2023-03-08T07:29:23;75895.03;;;-145.72;100.00
15914;BME280;8055;51.930;8.840;2023-03-08T07:31:48;75888.84;;;-145.72;100.00
15914;BME280;8055;51.930;8.840;2023-03-08T07:34:13;75868.16;;;-145.72;100.00
15914;BME280;8055;51.930;8.840;2023-03-08T07:36:39;75868.16;;;-145.72;100.00
15914;BME280;8055;51.930;8.840;2023-03-08T07:39:04;75853.66;;;-145.72;100.00
15914;BME280;8055;51.930;8.840;2023-03-08T07:41:30;75855.72;;;-145.72;100.00
15914;BME280;8055;51.930;8.840;2023-03-08T07:43:57;75849.53;;;-145.72;100.00
15914;BME280;8055;51.930;8.840;2023-03-08T07:46:22;75853.66;;;-145.72;100.00
15914;BME280;8055;51.930;8.840;2023-03-08T07:48:48;75843.31;;;-145.72;100.00
15914;BME280;8055;51.930;8.840;2023-03-08T07:51:13;75835.03;;;-145.72;100.00
15914;BME280;8055;51.930;8.840;2023-03-08T07:53:38;75832.97;;;-145.72;100.00
15914;BME280;8055;51.930;8.840;2023-03-08T07:56:04;75837.09;;;-145.72;100.00
15914;BME280;8055;51.930;8.840;2023-03-08T07:58:30;75835.03;;;-145.72;100.00
15914;BME280;8055;51.930;8.840;2023-03-08T08:00:55;75832.97;;;-145.72;100.00
15914;BME280;8055;51.930;8.840;2023-03-08T08:03:20;75837.09;;;-145.72;100.00
15914;BME280;8055;51.930;8.840;2023-03-08T08:05:46;75826.75;;;-145.72;100.00
15914;BME280;8055;51.930;8.840;2023-03-08T08:08:12;75822.63;;;-145.72;100.00
15914;BME280;8055;51.930;8.840;2023-03-08T08:10:39;75822.63;;;-145.72;100.00
15914;BME280;8055;51.930;8.840;2023-03-08T08:13:05;75824.69;;;-145.72;100.00
15914;BME280;8055;51.930;8.840;2023-03-08T08:15:30;75830.91;;;-145.72;100.00
15914;BME280;8055;51.930;8.840;2023-03-08T08:17:55;75832.97;;;-145.72;100.00
15914;BME280;8055;51.930;8.840;2023-03-08T08:20:21;75830.91;;;-145.72;100.00
15914;BME280;8055;51.930;8.840;2023-03-08T08:22:46;75822.63;;;-145.72;100.00
15914;BME280;8055;51.930;8.840;2023-03-08T08:25:14;75818.47;;;-145.72;100.00
15914;BME280;8055;51.930;8.840;2023-03-08T08:27:39;75814.34;;;-145.72;100.00
15914;BME280;8055;51.930;8.840;2023-03-08T08:30:05;75801.94;;;-145.72;100.00
15914;BME280;8055;51.930;8.840;2023-03-08T08:32:33;75795.72;;;-145.72;100.00
15914;BME280;8055;51.930;8.840;2023-03-08T08:34:59;75789.50;;;-145.72;100.00
15914;BME280;8055;51.930;8.840;2023-03-08T08:37:24;75772.97;;;-145.72;100.00
15914;BME280;8055;51.930;8.840;2023-03-08T08:39:50;75775.03;;;-145.72;100.00
15914;BME280;8055;51.930;8.840;2023-03-08T08:42:15;75781.25;;;-145.72;100.00
15914;BME280;8055;51.930;8.840;2023-03-08T08:44:40;75770.88;;;-145.72;100.00
15914;BME280;8055;51.930;8.840;2023-03-08T08:47:06;75766.75;;;-145.72;100.00
15914;BME280;8055;51.930;8.840;2023-03-08T08:49:31;75760.53;;;-145.72;100.00
15914;BME280;8055;51.930;8.840;2023-03-08T08:51:56;75754.34;;;-145.72;100.00
15914;BME280;8055;51.930;8.840;2023-03-08T08:54:22;75744.00;;;-145.72;100.00
15914;BME280;8055;51.930;8.840;2023-03-08T08:56:47;75727.44;;;-145.72;100.00
15914;BME280;8055;51.930;8.840;2023-03-08T08:59:13;75725.38;;;-145.72;100.00
15914;BME280;8055;51.930;8.840;2023-03-08T09:01:40;75706.75;;;-145.72;100.00
15914;BME280;8055;51.930;8.840;2023-03-08T09:04:10;75708.81;;;-145.72;100.00
15914;BME280;8055;51.930;8.840;2023-03-08T09:06:36;75712.94;;;-145.72;100.00
15914;BME280;8055;51.930;8.840;2023-03-08T09:09:02;75712.94;;;-145.72;100.00
15914;BME280;8055;51.930;8.840;2023-03-08T09:11:28;75700.53;;;-145.72;100.00
15914;BME280;8055;51.930;8.840;2023-03-08T09:13:53;75698.47;;;-145.72;100.00
15914;BME280;8055;51.930;8.840;2023-03-08T09:18:46;75684.00;;;-145.72;100.00
15914;BME280;8055;51.930;8.840;2023-03-08T09:21:12;75675.72;;;-145.72;100.00
15914;BME280;8055;51.930;8.840;2023-03-08T09:23:38;75657.09;;;-145.72;100.00
15914;BME280;8055;51.930;8.840;2023-03-08T09:26:04;75650.88;;;-145.72;100.00
15914;BME280;8055;51.930;8.840;2023-03-08T09:28:31;75642.59;;;-145.72;100.00
15914;BME280;8055;51.930;8.840;2023-03-08T09:30:56;75650.88;;;-145.72;100.00
15914;BME280;8055;51.930;8.840;2023-03-08T09:33:22;75655.03;;;-145.72;100.00
15914;BME280;8055;51.930;8.840;2023-03-08T09:35:57;75661.22;;;-145.72;100.00
15914;BME280;8055;51.930;8.840;2023-03-08T09:38:24;75655.03;;;-145.72;100.00
15914;BME280;8055;51.930;8.840;2023-03-08T09:41:09;75661.22;;;-145.72;100.00
15914;BME280;8055;51.930;8.840;2023-03-08T09:43:59;75667.44;;;-145.72;100.00
15914;BME280;8055;51.930;8.840;2023-03-08T09:46:33;75661.22;;;-145.72;100.00
15914;BME280;8055;51.930;8.840;2023-03-08T09:49:02;75659.16;;;-145.72;100.00
15914;BME280;8055;51.930;8.840;2023-03-08T09:51:34;75648.81;;;-145.72;100.00
15914;BME280;8055;51.930;8.840;2023-03-08T09:54:05;75650.88;;;-145.72;100.00
15914;BME280;8055;51.930;8.840;2023-03-08T09:56:36;75644.66;;;-145.72;100.00
15914;BME280;8055;51.930;8.840;2023-03-08T09:59:15;75650.88;;;-145.72;100.00
15914;BME280;8055;51.930;8.840;2023-03-08T10:01:59;75648.81;;;-145.72;100.00
15914;BME280;8055;51.930;8.840;2023-03-08T10:07:47;75642.59;;;-145.72;100.00
15914;BME280;8055;51.930;8.840;2023-03-08T10:10:47;75634.31;;;-145.72;100.00
15914;BME280;8055;51.930;8.840;2023-03-08T10:16:11;75613.63;;;-145.72;100.00
15914;BME280;8055;51.930;8.840;2023-03-08T10:21:32;75626.06;;;-145.72;100.00
15914;BME280;8055;51.930;8.840;2023-03-08T10:24:08;75628.13;;;-145.72;100.00
15914;BME280;8055;51.930;8.840;2023-03-08T10:26:40;75626.06;;;-145.72;100.00
15914;BME280;8055;51.930;8.840;2023-03-08T10:29:05;75628.13;;;-145.72;100.00
15914;BME280;8055;51.930;8.840;2023-03-08T10:31:31;75630.19;;;-145.72;100.00
15914;BME280;8055;51.930;8.840;2023-03-08T10:34:17;75626.06;;;-145.72;100.00
15914;BME280;8055;51.930;8.840;2023-03-08T10:36:58;75617.78;;;-145.72;100.00
15914;BME280;8055;51.930;8.840;2023-03-08T10:39:25;75626.06;;;-145.72;100.00
15914;BME280;8055;51.930;8.840;2023-03-08T10:41:53;75621.91;;;-145.72;100.00
15914;BME280;8055;51.930;8.840;2023-03-08T10:44:30;75626.06;;;-145.72;100.00
15914;BME280;8055;51.930;8.840;2023-03-08T10:46:58;75626.06;;;-145.72;100.00
15914;BME280;8055;51.930;8.840;2023-03-08T10:49:24;75619.84;;;-145.72;100.00
15914;BME280;8055;51.930;8.840;2023-03-08T10:51:52;75617.78;;;-145.72;100.00
15914;BME280;8055;51.930;8.840;2023-03-08T10:54:18;75607.44;;;-145.72;100.00
15914;BME280;8055;51.930;8.840;2023-03-08T10:56:59;75592.94;;;-145.72;100.00
15914;BME280;8055;51.930;8.840;2023-03-08T10:59:32;75601.22;;;-145.72;100.00
15914;BME280;8055;51.930;8.840;2023-03-08T11:02:18;75590.88;;;-145.72;100.00
15914;BME280;8055;51.930;8.840;2023-03-08T11:04:51;75592.94;;;-145.72;100.00
15914;BME280;8055;51.930;8.840;2023-03-08T11:09:49;75588.81;;;-145.72;100.00
15914;BME280;8055;51.930;8.840;2023-03-08T11:12:24;75578.47;;;-145.72;100.00
15914;BME280;8055;51.930;8.840;2023-03-08T11:14:51;75563.97;;;-145.72;100.00
15914;BME280;8055;51.930;8.840;2023-03-08T11:19:57;75553.63;;;-145.72;100.00
15914;BME280;8055;51.930;8.840;2023-03-08T11:22:47;75566.03;;;-145.72;100.00
15914;BME280;8055;51.930;8.840;2023-03-08T11:25:48;75547.41;;;-145.72;100.00
15914;BME280;8055;51.930;8.840;2023-03-08T11:39:31;75572.25;;;-145.72;100.00
15914;BME280;8055;51.930;8.840;2023-03-08T11:42:13;75590.88;;;-145.72;100.00
15914;BME280;8055;51.930;8.840;2023-03-08T11:50:26;75601.22;;;-145.72;100.00
15914;BME280;8055;51.930;8.840;2023-03-08T11:53:20;75590.88;;;-145.72;100.00
15914;BME280;8055;51.930;8.840;2023-03-08T11:56:17;75584.66;;;-145.72;100.00
15914;BME280;8055;51.930;8.840;2023-03-08T11:59:02;75580.53;;;-145.72;100.00
15914;BME280;8055;51.930;8.840;2023-03-08T12:01:36;75584.66;;;-145.72;100.00
15914;BME280;8055;51.930;8.840;2023-03-08T12:04:26;75572.25;;;-145.72;100.00
15914;BME280;8055;51.930;8.840;2023-03-08T12:06:56;75574.31;;;-145.72;100.00
15914;BME280;8055;51.930;8.840;2023-03-08T12:12:42;75601.22;;;-145.72;100.00
15914;BME280;8055;51.930;8.840;2023-03-08T12:15:21;75605.34;;;-145.72;100.00
15914;BME280;8055;51.930;8.840;2023-03-08T12:17:53;75615.69;;;-145.72;100.00
15914;BME280;8055;51.930;8.840;2023-03-08T12:20:21;75619.84;;;-145.72;100.00
15914;BME280;8055;51.930;8.840;2023-03-08T12:22:59;75632.25;;;-145.72;100.00
15914;BME280;8055;51.930;8.840;2023-03-08T12:25:33;75623.97;;;-145.72;100.00
15914;BME280;8055;51.930;8.840;2023-03-08T12:30:53;75615.69;;;-145.72;100.00
15914;BME280;8055;51.930;8.840;2023-03-08T12:33:25;75621.91;;;-145.72;100.00
15914;BME280;8055;51.930;8.840;2023-03-08T12:40:45;75615.69;;;-145.72;100.00
15914;BME280;8055;51.930;8.840;2023-03-08T12:43:26;75617.78;;;-145.72;100.00
15914;BME280;8055;51.930;8.840;2023-03-08T12:46:04;75613.63;;;-145.72;100.00
15914;BME280;8055;51.930;8.840;2023-03-08T12:48:31;75613.63;;;-145.72;100.00
15914;BME280;8055;51.930;8.840;2023-03-08T12:53:57;75611.56;;;-145.72;100.00
15914;BME280;8055;51.930;8.840;2023-03-08T13:01:39;75605.34;;;-145.72;100.00
15914;BME280;8055;51.930;8.840;2023-03-08T13:04:35;75590.88;;;-145.72;100.00
15914;BME280;8055;51.930;8.840;2023-03-08T13:09:37;75568.13;;;-145.72;100.00
15914;BME280;8055;51.930;8.840;2023-03-08T13:20:02;75578.47;;;-145.72;100.00
15914;BME280;8055;51.930;8.840;2023-03-08T13:25:58;75582.59;;;-145.72;100.00
15914;BME280;8055;51.930;8.840;2023-03-08T13:28:33;75572.25;;;-145.72;100.00
15914;BME280;8055;51.930;8.840;2023-03-08T13:31:26;75574.31;;;-145.72;100.00
15914;BME280;8055;51.930;8.840;2023-03-08T13:33:54;75580.53;;;-145.72;100.00
15914;BME280;8055;51.930;8.840;2023-03-08T13:41:39;75584.66;;;-145.72;100.00
15914;BME280;8055;51.930;8.840;2023-03-08T13:46:40;75580.53;;;-145.72;100.00
15914;BME280;8055;51.930;8.840;2023-03-08T13:51:41;75584.66;;;-145.72;100.00
15914;BME280;8055;51.930;8.840;2023-03-08T13:54:13;75580.53;;;-145.72;100.00
15914;BME280;8055;51.930;8.840;2023-03-08T13:56:39;75576.38;;;-145.72;100.00
15914;BME280;8055;51.930;8.840;2023-03-08T13:59:04;75574.31;;;-145.72;100.00
15914;BME280;8055;51.930;8.840;2023-03-08T14:01:30;75574.31;;;-145.72;100.00